Time;durP1;ratioP1;P1;durP2;ratioP2;P2;SDS_P1;SDS_P2;PMS_P1;PMS_P2;Temp;Humidity;BMP_temperature;BMP_pressure;BME280_temperature;BME280_humidity;BME280_pressure;Samples;Min_cycle;Max_cycle;Signal;HPM_P1;HPM_P2
2023/04/21 00:01:01;;;;;;;20.95;12.88;;;9.90;99.90;;;;;;6183025;23;20164;-75
2023/04/21 00:03:28;;;;;;;16.20;12.10;;;9.90;99.90;;;;;;6182774;23;20197;-75
2023/04/21 00:05:57;;;;;;;13.45;12.07;;;9.90;99.90;;;;;;6182770;23;20157;-75
2023/04/21 00:08:25;;;;;;;23.25;11.60;;;9.90;99.90;;;;;;6183291;23;20222;-74
2023/04/21 00:10:53;;;;;;;23.17;14.15;;;9.90;99.90;;;;;;6182061;23;20172;-74
2023/04/21 00:13:20;;;;;;;17.25;12.88;;;9.80;99.90;;;;;;6182150;23;20180;-76
2023/04/21 00:15:47;;;;;;;19.48;13.20;;;9.80;99.90;;;;;;6183035;23;20185;-74
2023/04/21 00:18:13;;;;;;;19.80;14.05;;;9.80;99.90;;;;;;6182872;23;20201;-74
2023/04/21 00:20:41;;;;;;;21.98;12.00;;;9.80;99.90;;;;;;6182096;23;20165;-75
2023/04/21 00:23:09;;;;;;;16.48;13.20;;;9.80;99.90;;;;;;6181805;23;20265;-75
2023/04/21 00:25:36;;;;;;;16.88;12.80;;;9.80;99.90;;;;;;6179217;23;20180;-75
2023/04/21 00:28:05;;;;;;;14.32;12.15;;;9.80;99.90;;;;;;6177213;23;20208;-74
2023/04/21 00:30:31;;;;;;;13.93;12.02;;;9.80;99.90;;;;;;6146869;23;20202;-75
2023/04/21 00:32:58;;;;;;;14.60;12.45;;;9.80;99.90;;;;;;6146336;23;20225;-75
2023/04/21 00:35:25;;;;;;;13.00;11.63;;;9.80;99.90;;;;;;6144921;23;20173;-76
2023/04/21 00:37:52;;;;;;;15.55;11.63;;;9.80;99.90;;;;;;6144388;23;20233;-75
2023/04/21 00:40:19;;;;;;;16.88;12.90;;;9.70;99.90;;;;;;6138800;23;20218;-75
2023/04/21 00:42:46;;;;;;;17.20;12.70;;;9.70;99.90;;;;;;6133269;23;20253;-75
2023/04/21 00:45:15;;;;;;;22.40;13.27;;;9.80;99.90;;;;;;6132274;23;20261;-75
2023/04/21 00:47:42;;;;;;;15.98;11.70;;;9.80;99.90;;;;;;6133239;23;20202;-77
2023/04/21 00:50:10;;;;;;;16.70;12.10;;;9.80;99.90;;;;;;6131026;23;20260;-77
2023/04/21 00:52:40;;;;;;;13.55;11.07;;;9.80;99.90;;;;;;6131743;23;20256;-78
2023/04/21 00:55:08;;;;;;;14.57;11.70;;;9.70;99.90;;;;;;6132874;23;20209;-76
2023/04/21 00:57:36;;;;;;;14.82;10.85;;;9.70;99.90;;;;;;6130507;23;20272;-76
2023/04/21 01:00:06;;;;;;;13.32;11.48;;;9.70;99.90;;;;;;6128799;23;20557;-76
2023/04/21 01:02:36;;;;;;;13.27;11.48;;;9.60;99.90;;;;;;6129251;23;20645;-75
2023/04/21 01:05:07;;;;;;;17.27;12.88;;;9.60;99.90;;;;;;6129910;23;20760;-77
2023/04/21 01:07:34;;;;;;;23.50;11.93;;;9.50;99.90;;;;;;6129333;23;20221;-76
2023/04/21 01:10:02;;;;;;;15.82;11.95;;;9.50;99.90;;;;;;6131502;23;20188;-77
2023/04/21 01:12:29;;;;;;;18.48;11.85;;;9.50;99.90;;;;;;6129222;23;20177;-77
2023/04/21 01:14:56;;;;;;;15.73;11.90;;;9.50;99.90;;;;;;6129995;23;20181;-75
2023/04/21 01:17:23;;;;;;;13.35;11.88;;;9.50;99.90;;;;;;6128826;23;20198;-77
2023/04/21 01:19:53;;;;;;;12.38;10.25;;;9.50;99.90;;;;;;6128804;23;20283;-77
2023/04/21 01:22:21;;;;;;;17.67;13.50;;;9.50;99.90;;;;;;6129183;23;20201;-77
2023/04/21 01:24:49;;;;;;;14.70;11.00;;;9.50;99.90;;;;;;6133477;23;20220;-77
2023/04/21 01:27:18;;;;;;;21.85;12.80;;;9.50;99.90;;;;;;6129503;23;20250;-77
2023/04/21 01:29:46;;;;;;;18.48;12.65;;;9.40;99.90;;;;;;6149064;23;20188;-76
2023/04/21 01:32:16;;;;;;;17.95;12.00;;;9.40;99.90;;;;;;6158724;23;20183;-77
2023/04/21 01:34:43;;;;;;;15.05;13.25;;;9.40;99.90;;;;;;6158755;23;20176;-77
2023/04/21 01:37:11;;;;;;;18.95;14.15;;;9.40;99.90;;;;;;6158854;23;20728;-76
2023/04/21 01:39:40;;;;;;;17.08;11.43;;;9.30;99.90;;;;;;6159713;23;20176;-76
2023/04/21 01:42:07;;;;;;;18.50;11.93;;;9.40;99.90;;;;;;6159228;23;20212;-77
2023/04/21 01:44:34;;;;;;;19.95;12.02;;;9.20;99.90;;;;;;6159706;23;20202;-76
2023/04/21 01:47:01;;;;;;;17.55;13.40;;;9.20;99.90;;;;;;6162089;23;20197;-76
2023/04/21 01:49:28;;;;;;;16.15;11.55;;;9.20;99.90;;;;;;6163253;23;20295;-76
2023/04/21 01:51:55;;;;;;;19.00;12.38;;;9.20;99.90;;;;;;6163387;23;20188;-76
2023/04/21 01:54:22;;;;;;;14.88;11.65;;;9.20;99.90;;;;;;6163959;23;20172;-75
2023/04/21 01:56:50;;;;;;;16.13;12.77;;;9.20;99.90;;;;;;6163322;23;20557;-77
2023/04/21 01:59:17;;;;;;;16.77;12.57;;;9.10;99.90;;;;;;6163182;23;20568;-76
2023/04/21 02:01:44;;;;;;;15.48;11.07;;;9.10;99.90;;;;;;6164690;23;20187;-76
2023/04/21 02:04:11;;;;;;;18.25;11.90;;;9.10;99.90;;;;;;6165031;23;20196;-76
2023/04/21 02:06:38;;;;;;;15.50;11.27;;;9.10;99.90;;;;;;6165475;23;20220;-77
2023/04/21 02:09:05;;;;;;;15.70;12.13;;;9.10;99.90;;;;;;6165704;23;20173;-75
2023/04/21 02:11:31;;;;;;;23.80;11.20;;;9.10;99.90;;;;;;6164585;23;20232;-76
2023/04/21 02:14:00;;;;;;;21.73;11.00;;;9.10;99.90;;;;;;6166031;23;20181;-76
2023/04/21 02:16:27;;;;;;;14.55;11.88;;;9.10;99.90;;;;;;6165366;23;20180;-75
2023/04/21 02:18:55;;;;;;;13.73;12.30;;;9.00;99.90;;;;;;6164516;23;20185;-76
2023/04/21 02:21:23;;;;;;;16.60;11.27;;;9.10;99.90;;;;;;6163566;23;20560;-76
2023/04/21 02:23:50;;;;;;;13.98;11.05;;;9.10;99.90;;;;;;6162421;23;20200;-77
2023/04/21 02:26:17;;;;;;;15.95;11.23;;;9.10;99.90;;;;;;6162992;23;20236;-76
2023/04/21 02:28:45;;;;;;;19.30;12.65;;;9.10;99.90;;;;;;6162789;23;20196;-76
2023/04/21 02:31:13;;;;;;;16.00;11.52;;;9.10;99.90;;;;;;6160437;23;20578;-77
2023/04/21 02:33:40;;;;;;;19.10;12.15;;;9.10;99.90;;;;;;6160525;23;20264;-76
2023/04/21 02:36:07;;;;;;;19.15;11.30;;;9.00;99.90;;;;;;6164089;23;20181;-77
2023/04/21 02:38:34;;;;;;;18.90;11.85;;;9.10;99.90;;;;;;6160135;23;20248;-76
2023/04/21 02:41:01;;;;;;;18.80;11.70;;;9.10;99.90;;;;;;6164865;23;20518;-74
2023/04/21 02:43:27;;;;;;;13.10;11.57;;;9.30;99.90;;;;;;6170700;23;20196;-75
2023/04/21 02:45:55;;;;;;;15.95;11.40;;;9.10;99.90;;;;;;6160826;23;20221;-76
2023/04/21 02:48:23;;;;;;;18.33;12.35;;;9.30;99.90;;;;;;6163177;23;20292;-74
2023/04/21 02:50:51;;;;;;;15.25;10.90;;;9.10;99.90;;;;;;6167302;23;20240;-75
2023/04/21 02:53:18;;;;;;;15.73;12.15;;;9.10;99.90;;;;;;6170238;23;20227;-75
2023/04/21 02:55:45;;;;;;;12.95;10.43;;;9.20;99.90;;;;;;6171148;23;20188;-74
2023/04/21 02:58:12;;;;;;;14.82;10.75;;;9.10;99.90;;;;;;6171557;23;20201;-76
2023/04/21 03:00:39;;;;;;;12.40;10.52;;;9.10;99.90;;;;;;6173624;23;20180;-75
2023/04/21 03:03:06;;;;;;;13.35;10.55;;;9.10;99.90;;;;;;6174977;23;20203;-76
2023/04/21 03:05:34;;;;;;;23.90;11.95;;;9.30;99.90;;;;;;6169016;23;20220;-77
2023/04/21 03:08:01;;;;;;;18.02;12.20;;;9.30;99.90;;;;;;6163272;23;20288;-75
2023/04/21 03:10:28;;;;;;;15.40;11.20;;;9.20;99.90;;;;;;6161133;23;20181;-76
2023/04/21 03:12:55;;;;;;;17.67;12.23;;;9.10;99.90;;;;;;6160071;23;20573;-77
2023/04/21 03:15:22;;;;;;;16.75;11.35;;;9.20;99.90;;;;;;6163342;23;20827;-76
2023/04/21 03:17:49;;;;;;;12.95;10.90;;;9.10;99.90;;;;;;6160647;23;20215;-77
2023/04/21 03:20:16;;;;;;;16.42;11.10;;;9.10;99.90;;;;;;6160357;23;20204;-77
2023/04/21 03:22:45;;;;;;;12.82;11.13;;;9.10;99.90;;;;;;6170187;23;20169;-76
2023/04/21 03:25:12;;;;;;;16.65;10.82;;;9.10;99.90;;;;;;6162976;23;20185;-77
2023/04/21 03:27:39;;;;;;;18.55;11.88;;;8.90;99.90;;;;;;6162130;23;20248;-77
2023/04/21 03:30:07;;;;;;;17.35;11.32;;;9.10;99.90;;;;;;6159252;23;20191;-76
2023/04/21 03:32:34;;;;;;;14.85;12.10;;;9.10;99.90;;;;;;6160303;23;20276;-76
2023/04/21 03:35:00;;;;;;;14.45;11.40;;;9.00;99.90;;;;;;6168655;23;20184;-76
2023/04/21 03:37:27;;;;;;;27.33;12.88;;;9.00;99.90;;;;;;6162842;23;20236;-76
2023/04/21 03:39:55;;;;;;;18.77;11.60;;;9.00;99.90;;;;;;6159598;23;20192;-79
2023/04/21 03:42:22;;;;;;;12.82;11.05;;;9.00;99.90;;;;;;6160247;23;20252;-75
2023/04/21 03:44:49;;;;;;;16.38;12.40;;;8.90;99.90;;;;;;6159721;23;20212;-76
2023/04/21 03:47:16;;;;;;;19.83;11.43;;;9.00;99.90;;;;;;6159554;23;20283;-75
2023/04/21 03:49:43;;;;;;;18.63;11.60;;;8.90;99.90;;;;;;6163239;23;20184;-76
2023/04/21 03:52:13;;;;;;;17.92;11.93;;;8.90;99.90;;;;;;6168940;23;20200;-76
2023/04/21 03:54:40;;;;;;;21.23;11.38;;;8.90;99.90;;;;;;6175026;23;20181;-76
2023/04/21 03:57:08;;;;;;;18.42;11.85;;;8.90;99.90;;;;;;6160498;23;20255;-77
2023/04/21 03:59:35;;;;;;;16.77;11.20;;;9.00;99.90;;;;;;6159665;23;20180;-77
2023/04/21 04:02:02;;;;;;;13.88;12.10;;;9.00;99.90;;;;;;6160679;23;20216;-77
2023/04/21 04:04:29;;;;;;;18.05;11.50;;;9.00;99.90;;;;;;6159912;23;20196;-76
2023/04/21 04:06:56;;;;;;;14.20;11.02;;;9.00;99.90;;;;;;6159890;23;20201;-76
2023/04/21 04:09:23;;;;;;;12.90;11.35;;;9.00;99.90;;;;;;6161828;23;20208;-75
2023/04/21 04:11:49;;;;;;;17.25;10.70;;;8.90;99.90;;;;;;6159036;23;20212;-75
2023/04/21 04:14:18;;;;;;;13.82;11.05;;;9.00;99.90;;;;;;6159402;23;20177;-76
2023/04/21 04:16:45;;;;;;;15.75;11.45;;;9.00;99.90;;;;;;6158031;23;20850;-75
2023/04/21 04:19:11;;;;;;;20.00;12.60;;;9.00;99.90;;;;;;6156330;23;20257;-77
2023/04/21 04:21:38;;;;;;;18.30;11.98;;;9.00;99.90;;;;;;6157296;23;20280;-75
2023/04/21 04:24:07;;;;;;;18.25;9.88;;;9.00;99.90;;;;;;6156788;23;20228;-77
2023/04/21 04:26:34;;;;;;;14.35;11.63;;;9.00;99.90;;;;;;6159817;23;20236;-77
2023/04/21 04:29:01;;;;;;;14.15;11.45;;;9.00;99.90;;;;;;6158767;23;20185;-76
2023/04/21 04:31:29;;;;;;;14.15;10.63;;;9.10;99.90;;;;;;6172260;23;20209;-76
2023/04/21 04:33:56;;;;;;;16.15;11.50;;;9.10;99.90;;;;;;6160740;23;20620;-78
2023/04/21 04:36:23;;;;;;;14.95;11.25;;;9.10;99.90;;;;;;6159124;23;20181;-77
2023/04/21 04:38:50;;;;;;;13.63;10.60;;;9.20;99.90;;;;;;6157218;23;20181;-76
2023/04/21 04:41:18;;;;;;;13.93;10.50;;;9.20;99.90;;;;;;6158423;23;20481;-77
2023/04/21 04:43:45;;;;;;;21.58;10.68;;;9.20;99.90;;;;;;6159325;23;20192;-78
2023/04/21 04:46:12;;;;;;;15.10;11.13;;;9.30;99.90;;;;;;6157548;23;20508;-77
2023/04/21 04:48:40;;;;;;;17.65;11.15;;;9.40;99.90;;;;;;6157430;23;20177;-77
2023/04/21 04:51:08;;;;;;;18.73;11.52;;;9.40;99.90;;;;;;6156829;23;20223;-77
2023/04/21 04:53:35;;;;;;;16.35;11.48;;;9.50;99.90;;;;;;6158549;23;20183;-77
2023/04/21 04:56:01;;;;;;;15.85;10.07;;;9.50;99.90;;;;;;6159124;23;20230;-75
2023/04/21 04:58:28;;;;;;;13.18;10.18;;;9.50;99.90;;;;;;6156964;23;20203;-76
2023/04/21 05:00:55;;;;;;;18.02;9.90;;;9.60;99.90;;;;;;6156790;23;20268;-78
2023/04/21 05:03:22;;;;;;;15.70;10.95;;;9.70;99.90;;;;;;6157144;23;20181;-76
2023/04/21 05:05:50;;;;;;;17.75;10.50;;;9.70;99.90;;;;;;6157407;23;20724;-78
2023/04/21 05:08:17;;;;;;;14.20;11.10;;;9.70;99.90;;;;;;6158239;23;20280;-77
2023/04/21 05:10:44;;;;;;;19.52;10.20;;;9.90;99.90;;;;;;6157271;23;20181;-75
2023/04/21 05:13:11;;;;;;;20.85;11.93;;;10.00;99.90;;;;;;6157668;23;20208;-77
2023/04/21 05:15:37;;;;;;;15.40;10.80;;;10.20;99.90;;;;;;6157486;23;20260;-77
2023/04/21 05:18:06;;;;;;;18.95;11.00;;;10.50;99.90;;;;;;6157115;23;20206;-77
2023/04/21 05:20:33;;;;;;;18.63;10.60;;;11.00;99.90;;;;;;6157695;23;20257;-76
2023/04/21 05:23:01;;;;;;;22.23;10.32;;;11.60;99.90;;;;;;6157733;23;20210;-76
2023/04/21 05:25:28;;;;;;;17.73;10.15;;;12.30;99.90;;;;;;6156320;23;20253;-75
2023/04/21 05:27:55;;;;;;;20.00;10.60;;;12.90;99.90;;;;;;6157162;23;20218;-75
2023/04/21 05:30:22;;;;;;;13.25;9.30;;;13.40;99.90;;;;;;6155873;23;20532;-75
2023/04/21 05:32:49;;;;;;;13.75;10.90;;;13.80;99.90;;;;;;6157149;23;20582;-76
2023/04/21 05:35:16;;;;;;;17.70;9.25;;;14.20;99.90;;;;;;6157584;23;20177;-76
2023/04/21 05:37:43;;;;;;;13.98;9.65;;;14.50;99.90;;;;;;6157088;23;20750;-76
2023/04/21 05:40:11;;;;;;;16.30;9.80;;;14.80;99.90;;;;;;6156790;23;20181;-77
2023/04/21 05:42:38;;;;;;;13.60;8.85;;;14.90;99.90;;;;;;6157970;23;20256;-76
2023/04/21 05:45:06;;;;;;;16.92;9.20;;;15.10;99.90;;;;;;6157012;23;20197;-77
2023/04/21 05:47:33;;;;;;;14.95;8.93;;;15.30;99.90;;;;;;6156021;23;20198;-76
2023/04/21 05:50:00;;;;;;;10.67;9.27;;;15.70;99.90;;;;;;6155739;23;20254;-76
2023/04/21 05:52:27;;;;;;;11.10;8.77;;;16.10;99.70;;;;;;6156979;23;20404;-76
2023/04/21 05:54:54;;;;;;;11.73;8.33;;;16.30;99.30;;;;;;6157936;23;20414;-76
2023/04/21 05:57:22;;;;;;;10.70;8.57;;;16.70;98.00;;;;;;6158824;23;20507;-76
2023/04/21 05:59:49;;;;;;;14.80;9.60;;;17.00;96.90;;;;;;6155770;23;20447;-75
2023/04/21 06:02:16;;;;;;;13.17;10.37;;;16.80;96.00;;;;;;6161616;23;20405;-75
2023/04/21 06:04:49;;;;;;;17.00;9.33;;;17.00;96.20;;;;;;6158321;23;20531;-76
2023/04/21 06:16:32;;;;;;;12.23;9.20;;;17.80;93.90;;;;;;6168841;23;20431;-79
2023/04/21 06:18:59;;;;;;;20.57;10.87;;;17.80;93.30;;;;;;6168809;23;20406;-77
2023/04/21 06:21:26;;;;;;;11.20;9.33;;;17.90;93.40;;;;;;6166651;23;20462;-75
2023/04/21 06:23:53;;;;;;;13.37;8.13;;;18.30;92.80;;;;;;6170354;23;20412;-78
2023/04/21 06:26:20;;;;;;;13.40;9.03;;;18.50;92.20;;;;;;6166068;23;20523;-76
2023/04/21 06:28:47;;;;;;;13.17;7.80;;;18.40;92.10;;;;;;6166144;23;20444;-76
2023/04/21 06:31:14;;;;;;;12.50;9.40;;;18.70;92.00;;;;;;6164486;23;20435;-76
2023/04/21 06:33:42;;;;;;;9.47;8.57;;;18.90;91.40;;;;;;6162904;23;20632;-77
2023/04/21 06:36:09;;;;;;;14.50;10.20;;;19.30;91.20;;;;;;6165024;23;20428;-77
2023/04/21 06:38:38;;;;;;;16.30;11.00;;;19.40;90.60;;;;;;6163539;23;20460;-77
2023/04/21 06:41:05;;;;;;;15.63;9.40;;;19.60;90.30;;;;;;6162075;23;20419;-77
2023/04/21 06:43:32;;;;;;;11.23;8.40;;;20.40;89.70;;;;;;6165109;23;20411;-77
2023/04/21 06:45:59;;;;;;;12.60;8.13;;;20.80;87.10;;;;;;6167722;23;20842;-76
2023/04/21 06:48:26;;;;;;;12.37;8.97;;;21.10;86.50;;;;;;6169338;23;20511;-77
2023/04/21 06:50:54;;;;;;;10.27;7.90;;;21.80;84.80;;;;;;6167334;23;20407;-77
2023/04/21 06:53:21;;;;;;;15.50;9.80;;;21.80;83.30;;;;;;6166047;23;20655;-76
2023/04/21 06:55:49;;;;;;;10.17;7.53;;;22.00;83.00;;;;;;6164667;23;20416;-75
2023/04/21 06:58:15;;;;;;;13.17;9.50;;;22.40;82.00;;;;;;6164570;23;20428;-76
2023/04/21 07:00:42;;;;;;;12.63;8.63;;;23.00;80.80;;;;;;6164436;23;20401;-76
2023/04/21 07:03:09;;;;;;;11.40;9.33;;;23.00;80.20;;;;;;6158769;23;20404;-76
2023/04/21 07:05:36;;;;;;;14.80;8.70;;;23.20;79.60;;;;;;6160635;23;20531;-77
2023/04/21 07:08:04;;;;;;;10.73;8.50;;;23.40;79.00;;;;;;6159033;23;20518;-77
2023/04/21 07:10:31;;;;;;;12.80;9.20;;;23.90;78.60;;;;;;6164902;23;20928;-77
2023/04/21 07:12:58;;;;;;;13.03;8.40;;;23.80;76.70;;;;;;6160585;23;20431;-76
2023/04/21 07:15:25;;;;;;;13.77;8.53;;;24.20;76.50;;;;;;6159337;23;20408;-76
2023/04/21 07:17:51;;;;;;;11.03;7.57;;;24.60;76.00;;;;;;6159496;23;20459;-76
2023/04/21 07:20:18;;;;;;;13.63;9.37;;;24.80;75.20;;;;;;6158505;23;20432;-77
2023/04/21 07:22:45;;;;;;;13.57;9.33;;;25.00;74.10;;;;;;6161840;23;20468;-76
2023/04/21 07:25:13;;;;;;;11.40;9.00;;;25.10;73.60;;;;;;6168318;23;20445;-77
2023/04/21 07:27:40;;;;;;;14.10;9.93;;;25.20;72.60;;;;;;6158485;23;20442;-76
2023/04/21 07:30:08;;;;;;;8.73;7.80;;;25.70;72.20;;;;;;6158733;23;20416;-77
2023/04/21 07:32:37;;;;;;;8.97;8.07;;;25.20;72.00;;;;;;6158269;23;20487;-76
2023/04/21 07:35:04;;;;;;;14.20;7.70;;;24.80;72.80;;;;;;6158661;23;20452;-76
2023/04/21 07:37:31;;;;;;;10.90;9.70;;;24.80;73.70;;;;;;6159428;23;20441;-76
2023/04/21 07:39:58;;;;;;;9.40;8.37;;;25.00;72.60;;;;;;6158631;23;20409;-75
2023/04/21 07:42:26;;;;;;;12.63;8.47;;;25.30;73.00;;;;;;6158071;23;20408;-75
2023/04/21 07:44:54;;;;;;;10.37;8.80;;;25.80;71.40;;;;;;6157986;23;20448;-76
2023/04/21 07:47:21;;;;;;;10.77;9.00;;;25.80;70.30;;;;;;6157949;23;20456;-76
2023/04/21 07:49:48;;;;;;;9.73;8.20;;;26.50;69.90;;;;;;6157076;23;20458;-75
2023/04/21 07:52:15;;;;;;;11.90;10.63;;;26.50;69.70;;;;;;6158645;23;20416;-79
2023/04/21 07:54:42;;;;;;;12.47;9.00;;;26.30;69.90;;;;;;6160997;23;20411;-76
2023/04/21 07:57:08;;;;;;;13.60;8.40;;;26.30;68.90;;;;;;6162256;23;20520;-75
2023/04/21 07:59:37;;;;;;;12.93;9.13;;;26.50;68.60;;;;;;6161885;23;20415;-77
2023/04/21 08:02:04;;;;;;;13.10;9.40;;;26.60;68.10;;;;;;6165192;23;20393;-76
2023/04/21 08:04:30;;;;;;;11.80;9.20;;;26.50;68.00;;;;;;6161055;23;20444;-76
2023/04/21 08:06:57;;;;;;;9.93;8.63;;;26.10;68.00;;;;;;6161062;23;20441;-76
2023/04/21 08:09:24;;;;;;;11.80;9.20;;;26.30;68.30;;;;;;6158639;23;20571;-76
2023/04/21 08:11:51;;;;;;;9.90;8.43;;;26.00;68.70;;;;;;6159832;23;20431;-76
2023/04/21 08:14:18;;;;;;;14.17;8.47;;;26.30;68.20;;;;;;6162882;23;20476;-76
2023/04/21 08:16:46;;;;;;;10.80;9.50;;;25.90;68.60;;;;;;6162922;23;21115;-76
2023/04/21 08:19:13;;;;;;;12.23;9.60;;;25.90;68.20;;;;;;6159835;23;20426;-76
2023/04/21 08:21:40;;;;;;;17.83;9.93;;;26.20;68.20;;;;;;6164862;23;20420;-77
2023/04/21 08:24:07;;;;;;;14.80;10.20;;;26.40;67.90;;;;;;6166403;23;20411;-76
2023/04/21 08:26:34;;;;;;;12.83;8.93;;;26.90;67.00;;;;;;6166443;23;20566;-76
2023/04/21 08:29:01;;;;;;;11.23;9.17;;;27.30;66.20;;;;;;6166455;23;20441;-77
2023/04/21 08:31:28;;;;;;;10.93;8.50;;;27.20;65.90;;;;;;6165770;23;20491;-76
2023/04/21 08:33:56;;;;;;;10.80;8.40;;;27.20;65.60;;;;;;6167651;23;20967;-77
2023/04/21 08:36:23;;;;;;;13.33;9.13;;;27.20;66.70;;;;;;6168240;23;20893;-77
2023/04/21 08:38:50;;;;;;;9.40;8.40;;;27.00;65.60;;;;;;6166929;23;20408;-78
2023/04/21 08:41:16;;;;;;;13.27;9.00;;;26.90;66.00;;;;;;6166579;23;20428;-77
2023/04/21 08:43:43;;;;;;;11.83;9.23;;;27.30;65.90;;;;;;6170018;23;20405;-77
2023/04/21 08:46:12;;;;;;;10.10;9.10;;;27.60;65.50;;;;;;6164452;23;20480;-76
2023/04/21 08:48:39;;;;;;;11.00;8.27;;;27.80;64.40;;;;;;6164229;23;20964;-76
2023/04/21 08:51:10;;;;;;;11.83;8.80;;;28.20;64.50;;;;;;6164814;23;20428;-77
2023/04/21 08:53:37;;;;;;;12.17;8.33;;;28.30;63.80;;;;;;6163657;23;20404;-77
2023/04/21 08:56:04;;;;;;;11.90;8.80;;;28.20;62.50;;;;;;6163991;23;20471;-77
2023/04/21 08:58:32;;;;;;;14.20;8.00;;;27.80;63.50;;;;;;6162585;23;20425;-76
2023/04/21 09:00:58;;;;;;;11.90;8.87;;;27.70;63.50;;;;;;6163992;23;20472;-77
2023/04/21 09:03:27;;;;;;;12.50;8.77;;;27.90;63.10;;;;;;6161627;23;20440;-77
2023/04/21 09:05:58;;;;;;;13.10;8.00;;;28.20;62.60;;;;;;6163951;23;20479;-76
2023/04/21 09:08:29;;;;;;;9.73;7.80;;;27.70;62.50;;;;;;6162365;23;20492;-78
2023/04/21 09:10:57;;;;;;;11.47;8.10;;;27.20;62.90;;;;;;6161672;23;20397;-77
2023/04/21 09:13:30;;;;;;;11.60;7.83;;;27.00;62.50;;;;;;6162747;23;20472;-77
2023/04/21 09:15:57;;;;;;;11.40;7.93;;;26.80;63.20;;;;;;6161575;23;20439;-76
2023/04/21 09:18:26;;;;;;;10.00;7.20;;;26.60;63.50;;;;;;6162626;23;20429;-77
2023/04/21 09:21:08;;;;;;;10.97;7.43;;;26.30;64.10;;;;;;6163182;23;20501;-77
2023/04/21 09:23:44;;;;;;;12.53;7.90;;;26.40;64.60;;;;;;6164473;23;20427;-77
2023/04/21 09:26:11;;;;;;;10.70;7.70;;;26.80;63.00;;;;;;6162469;23;20475;-78
2023/04/21 09:28:41;;;;;;;12.07;8.40;;;27.00;63.10;;;;;;6163368;23;20519;-78
2023/04/21 09:31:15;;;;;;;10.73;7.83;;;27.00;62.80;;;;;;6161955;23;20397;-77
2023/04/21 09:33:45;;;;;;;8.73;6.80;;;26.90;62.30;;;;;;6164649;23;20591;-77
2023/04/21 09:36:19;;;;;;;10.37;7.47;;;26.90;62.60;;;;;;6164978;23;20405;-79
2023/04/21 09:38:56;;;;;;;16.30;9.70;;;27.20;61.80;;;;;;6162729;23;20396;-76
2023/04/21 09:41:24;;;;;;;8.30;7.20;;;27.20;62.10;;;;;;6163605;23;20399;-77
2023/04/21 09:43:50;;;;;;;12.63;8.30;;;26.80;61.30;;;;;;6162114;23;20424;-78
2023/04/21 09:46:18;;;;;;;7.60;6.23;;;25.90;62.30;;;;;;6163100;23;20500;-78
2023/04/21 09:48:46;;;;;;;9.90;7.70;;;25.40;63.60;;;;;;6163328;23;20904;-77
2023/04/21 09:51:15;;;;;;;16.33;7.47;;;25.40;64.20;;;;;;6174028;23;20432;-78
2023/04/21 09:53:44;;;;;;;8.33;7.17;;;25.40;64.50;;;;;;6181420;23;20465;-77
2023/04/21 09:56:29;;;;;;;9.10;6.47;;;25.50;64.60;;;;;;6181535;23;20416;-76
2023/04/21 09:59:00;;;;;;;15.30;7.53;;;25.60;63.60;;;;;;6182510;23;20421;-77
2023/04/21 10:01:37;;;;;;;18.50;7.53;;;25.50;63.80;;;;;;6181225;23;20392;-77
2023/04/21 10:04:04;;;;;;;8.37;6.37;;;26.00;63.90;;;;;;6181450;23;20393;-77
2023/04/21 10:06:32;;;;;;;11.83;6.77;;;26.00;61.70;;;;;;6181610;23;20463;-77
2023/04/21 10:09:18;;;;;;;8.67;5.90;;;25.60;61.90;;;;;;6182205;23;20392;-77
2023/04/21 10:11:46;;;;;;;8.53;6.23;;;25.60;62.60;;;;;;6184667;23;20404;-77
2023/04/21 10:14:13;;;;;;;7.10;6.40;;;25.40;61.90;;;;;;6185250;23;20439;-77
2023/04/21 10:16:40;;;;;;;8.93;7.70;;;24.80;61.20;;;;;;6185269;23;20436;-76
2023/04/21 10:19:25;;;;;;;8.30;6.80;;;24.40;61.50;;;;;;6184912;23;20436;-77
2023/04/21 10:21:55;;;;;;;7.50;6.27;;;24.60;62.50;;;;;;6183779;23;20423;-78
2023/04/21 10:24:21;;;;;;;9.27;6.90;;;25.00;62.90;;;;;;6184311;23;20385;-77
2023/04/21 10:26:50;;;;;;;7.27;5.87;;;24.70;63.20;;;;;;6183836;23;20486;-77
2023/04/21 10:29:29;;;;;;;9.93;7.03;;;24.50;63.50;;;;;;6183701;23;20412;-77
2023/04/21 10:31:56;;;;;;;7.20;6.50;;;24.10;62.60;;;;;;6184399;23;20380;-77
2023/04/21 10:34:30;;;;;;;17.53;6.53;;;24.00;62.10;;;;;;6184062;23;20404;-77
2023/04/21 10:37:14;;;;;;;7.43;5.37;;;23.50;62.60;;;;;;6183870;23;20440;-77
2023/04/21 10:39:59;;;;;;;9.00;6.90;;;23.30;63.00;;;;;;6182964;23;20381;-78
2023/04/21 10:42:35;;;;;;;10.53;6.33;;;22.60;64.40;;;;;;6179100;23;20389;-78
2023/04/21 10:45:07;;;;;;;9.00;6.77;;;22.20;65.00;;;;;;6177584;23;20459;-76
2023/04/21 10:47:43;;;;;;;8.07;5.73;;;22.10;65.70;;;;;;6175853;23;20452;-77
2023/04/21 10:50:13;;;;;;;8.33;5.20;;;22.30;65.50;;;;;;6176265;23;20436;-77
2023/04/21 10:52:43;;;;;;;8.77;5.70;;;22.40;64.10;;;;;;6170643;23;20468;-77
2023/04/21 10:55:11;;;;;;;8.70;5.67;;;22.40;64.10;;;;;;6170969;23;20424;-78
2023/04/21 10:57:43;;;;;;;6.43;5.67;;;22.20;63.20;;;;;;6170636;23;20428;-78
2023/04/21 11:00:12;;;;;;;5.07;4.47;;;21.90;62.90;;;;;;6164975;23;20408;-77
2023/04/21 11:02:39;;;;;;;7.80;6.30;;;21.70;63.40;;;;;;6168725;23;20408;-78
2023/04/21 11:05:08;;;;;;;9.50;5.20;;;21.70;64.00;;;;;;6166157;23;20411;-79
2023/04/21 11:07:35;;;;;;;7.23;6.00;;;21.70;64.50;;;;;;6165075;23;20445;-77
2023/04/21 11:10:04;;;;;;;10.00;5.90;;;21.60;64.50;;;;;;6164182;23;20419;-79
2023/04/21 11:12:32;;;;;;;5.87;5.30;;;21.80;63.30;;;;;;6164772;23;20452;-78
2023/04/21 11:15:06;;;;;;;8.23;5.77;;;21.60;63.70;;;;;;6168102;23;20441;-77
2023/04/21 11:17:33;;;;;;;6.83;6.00;;;21.70;64.00;;;;;;6167903;23;20428;-78
2023/04/21 11:20:03;;;;;;;6.50;5.60;;;21.80;63.50;;;;;;6169666;23;20463;-78
2023/04/21 11:22:30;;;;;;;6.60;5.90;;;21.80;62.40;;;;;;6167011;23;20419;-77
2023/04/21 11:24:58;;;;;;;8.37;5.70;;;21.60;62.70;;;;;;6169422;23;20468;-78
2023/04/21 11:27:27;;;;;;;6.10;5.50;;;21.40;62.80;;;;;;6172168;23;20457;-77
2023/04/21 11:29:54;;;;;;;6.63;5.90;;;21.10;63.50;;;;;;6168072;23;20416;-78
2023/04/21 11:32:22;;;;;;;9.00;5.90;;;21.30;64.00;;;;;;6166744;23;20419;-77
2023/04/21 11:34:49;;;;;;;7.33;5.63;;;21.40;64.00;;;;;;6168061;23;20408;-78
2023/04/21 11:37:21;;;;;;;9.43;5.87;;;21.40;63.50;;;;;;6168273;23;20427;-79
2023/04/21 11:39:48;;;;;;;8.50;6.53;;;21.50;63.20;;;;;;6167900;23;20401;-77
2023/04/21 11:42:21;;;;;;;6.40;5.80;;;21.70;63.20;;;;;;6171667;23;20724;-77
2023/04/21 11:44:48;;;;;;;7.40;6.30;;;21.70;62.50;;;;;;6171856;23;20393;-77
2023/04/21 11:47:16;;;;;;;6.53;5.73;;;21.70;62.60;;;;;;6180394;23;20459;-77
2023/04/21 11:49:53;;;;;;;9.20;6.03;;;21.80;61.90;;;;;;6176311;23;20416;-77
2023/04/21 11:52:21;;;;;;;13.00;7.23;;;21.70;62.00;;;;;;6173622;23;20403;-76
2023/04/21 11:54:48;;;;;;;7.73;6.03;;;21.40;62.50;;;;;;6170502;23;20453;-77
2023/04/21 11:57:18;;;;;;;7.20;5.90;;;21.30;63.20;;;;;;6168859;23;20458;-76
2023/04/21 11:59:47;;;;;;;6.10;5.60;;;21.20;63.90;;;;;;6167735;23;20420;-76
2023/04/21 12:02:22;;;;;;;7.23;5.93;;;21.10;63.80;;;;;;6168438;23;20733;-77
2023/04/21 12:05:02;;;;;;;8.37;7.20;;;21.20;63.30;;;;;;6168348;23;20411;-76
2023/04/21 12:07:32;;;;;;;9.50;7.10;;;21.10;61.70;;;;;;6162855;23;20463;-77
2023/04/21 12:10:01;;;;;;;8.23;6.80;;;21.10;61.60;;;;;;6162771;23;20431;-78
2023/04/21 12:12:28;;;;;;;7.27;6.40;;;21.00;62.90;;;;;;6165740;23;20444;-78
2023/04/21 12:14:55;;;;;;;9.03;5.93;;;21.10;62.40;;;;;;6165155;23;20500;-78
2023/04/21 12:17:22;;;;;;;9.97;6.00;;;21.30;62.80;;;;;;6164814;23;20507;-77
2023/04/21 12:19:49;;;;;;;12.10;6.47;;;21.50;61.80;;;;;;6163453;23;20527;-78
2023/04/21 12:22:18;;;;;;;6.30;5.50;;;21.70;60.90;;;;;;6161887;23;20404;-78
2023/04/21 12:24:46;;;;;;;7.77;5.57;;;21.80;61.10;;;;;;6164306;23;20888;-78
2023/04/21 12:27:13;;;;;;;6.70;6.10;;;21.80;59.40;;;;;;6161433;23;20967;-77
2023/04/21 12:29:40;;;;;;;10.30;6.33;;;22.00;59.20;;;;;;6164013;23;20452;-77
2023/04/21 12:32:07;;;;;;;10.03;5.70;;;22.10;60.00;;;;;;6164858;23;20802;-78
2023/04/21 12:34:35;;;;;;;5.77;5.13;;;22.10;57.60;;;;;;6163588;23;20443;-78
2023/04/21 12:37:02;;;;;;;6.67;5.60;;;22.10;56.80;;;;;;6164502;23;20483;-79
2023/04/21 12:39:31;;;;;;;6.93;5.10;;;22.10;55.60;;;;;;6163711;23;20439;-78
2023/04/21 12:41:57;;;;;;;6.63;5.30;;;21.90;55.60;;;;;;6163668;23;20492;-78
2023/04/21 12:44:25;;;;;;;9.00;6.13;;;21.80;55.70;;;;;;6164403;23;20412;-79
2023/04/21 12:46:52;;;;;;;6.37;5.47;;;21.70;55.80;;;;;;6166679;23;20475;-80
2023/04/21 12:49:19;;;;;;;6.43;5.83;;;21.70;55.80;;;;;;6166289;23;20413;-79
2023/04/21 12:51:46;;;;;;;8.70;5.10;;;21.70;56.40;;;;;;6164143;23;20494;-81